CheckWX is a tool to help pilots better visualize weather data.  It is not intended as a substitute for an official pre-flight weather briefing.

05:16:53 UTC

MMTC TAF
Francisco Sarabia International Airport
Torreón, Mexico
TAF MMTC 231714Z 2318/2418 23008KT P6SM SCT030 BKN220 BECMG 2320/2321 34010KT FM240100 03005KT P6SM BKN220 BECMG 2405/2406 36005KT FM241200 03005KT P6SM SKC

Feb-23@
18:00 UTC

Feb-23 @ 18:00 UTC

Feb-23@
20:00 UTC

Feb-23 @ 20:00 UTC

TAF MMTC 231714Z 2318/2418 23008KT P6SM SCT030 BKN220

Expired

Wind
  • 230° at 8 KTS
Cloud Levels
  • Scattered at 3,000' AGL
  • Broken at 22,000' AGL

Feb-23@
20:00 UTC

Feb-23 @ 20:00 UTC

Feb-24@
01:00 UTC

Feb-24 @ 01:00 UTC

BECMG 2320/2321 34010KT

Expired

Wind
  • 340° at 10 KTS
Cloud Levels
  • Scattered at 3,000' AGL
  • Broken at 22,000' AGL

Feb-24@
01:00 UTC

Feb-24 @ 01:00 UTC

Feb-24@
05:00 UTC

Feb-24 @ 05:00 UTC

FM240100 03005KT P6SM BKN220

Expired

Wind
  • 030° at 5 KTS
Cloud Levels
  • Broken at 22,000' AGL

Feb-24@
05:00 UTC

Feb-24 @ 05:00 UTC

Feb-24@
12:00 UTC

Feb-24 @ 12:00 UTC

BECMG 2405/2406 36005KT

Becoming

Becoming Conditions expected by Sun, Feb 24, 2019 @ 06:00 UTC

Wind
  • 360° at 5 KTS
Cloud Levels
  • Broken at 22,000' AGL

Feb-24@
12:00 UTC

Feb-24 @ 12:00 UTC

Feb-24@
18:00 UTC

Feb-24 @ 18:00 UTC

FM241200 03005KT P6SM SKC

From

From Standard forecast or significant change

Wind
  • 030° at 5 KTS
Cloud Levels
  • Clear skies